Lake Buena Vista, Florida
Current Conditions -  °F | °C
As of 1:50 PM on Tuesday 21 Oct 2014 (Local Time) from KISM Reporting Station
Broken Clouds Broken Clouds  
Wind Chill: 28°   Ceiling: 3300
Heat Index: 30°   Visibility: 10mi
Dew Point: 21°   Wind: 0mph
Humidity: 66%   Direction: NA
Pressure: 29.94"   Gusts: NA
Location:  28.37°N, 81.52°W
Report Text: KISM 211750Z 00000KT 10SM BKN033 28/21 A2994
Loading
Personal Weather Stations






























Interactive Weather Map
Tropical Storm Tracking
New forecast layout! Learn more

10-Day Weather Forecast

Advertisements
Track Severe Weather on mobile